createdAt,value
2024-04-11T00:01:00.091Z,2.03
2024-04-11T00:03:27.406Z,2.05
2024-04-11T00:05:54.144Z,2.40
2024-04-11T00:08:20.946Z,2.60
2024-04-11T00:10:47.619Z,2.53
2024-04-11T00:13:14.183Z,2.00
2024-04-11T00:15:40.786Z,1.80
2024-04-11T00:18:08.696Z,1.67
2024-04-11T00:20:35.472Z,2.53
2024-04-11T00:23:02.294Z,1.95
2024-04-11T00:25:28.797Z,2.33
2024-04-11T00:27:55.380Z,2.13
2024-04-11T00:30:21.980Z,2.83
2024-04-11T00:32:50.627Z,2.17
2024-04-11T00:35:19.776Z,2.13
2024-04-11T00:37:48.402Z,2.13
2024-04-11T00:40:15.050Z,2.67
2024-04-11T00:42:42.035Z,2.58
2024-04-11T00:45:08.618Z,1.65
2024-04-11T00:47:36.114Z,2.38
2024-04-11T00:50:02.911Z,1.90
2024-04-11T00:52:30.560Z,2.42
2024-04-11T00:54:58.092Z,2.58
2024-04-11T00:57:25.610Z,2.53
2024-04-11T00:59:52.361Z,2.15
2024-04-11T01:02:19.734Z,2.30
2024-04-11T01:04:46.471Z,1.90
2024-04-11T01:07:14.264Z,2.67
2024-04-11T01:09:46.035Z,2.53
2024-04-11T01:12:14.188Z,2.50
2024-04-11T01:14:48.318Z,2.13
2024-04-11T01:17:15.735Z,2.13
2024-04-11T01:19:45.782Z,2.70
2024-04-11T01:22:12.678Z,2.25
2024-04-11T01:24:41.859Z,1.77
2024-04-11T01:27:09.295Z,2.83
2024-04-11T01:29:40.343Z,2.42
2024-04-11T01:32:08.213Z,2.20
2024-04-11T01:34:35.829Z,1.55
2024-04-11T01:37:02.635Z,1.65
2024-04-11T01:39:29.236Z,2.40
2024-04-11T01:41:56.018Z,2.17
2024-04-11T01:44:23.079Z,2.47
2024-04-11T01:46:50.420Z,1.95
2024-04-11T01:49:18.119Z,2.13
2024-04-11T01:51:44.784Z,2.03
2024-04-11T01:54:13.162Z,2.40
2024-04-11T01:56:39.831Z,2.10
2024-04-11T01:59:06.723Z,2.63
2024-04-11T02:01:36.324Z,2.20
2024-04-11T02:04:07.428Z,2.55
2024-04-11T02:06:35.667Z,1.70
2024-04-11T02:09:07.246Z,1.80
2024-04-11T02:11:35.164Z,1.65
2024-04-11T02:14:02.311Z,2.40
2024-04-11T02:16:35.929Z,2.10
2024-04-11T02:19:08.058Z,1.90
2024-04-11T02:21:35.353Z,1.60
2024-04-11T02:24:08.012Z,2.28
2024-04-11T02:26:36.164Z,2.30
2024-04-11T02:29:03.054Z,3.00
2024-04-11T02:31:29.711Z,2.03
2024-04-11T02:33:59.820Z,2.10
2024-04-11T02:36:31.037Z,2.85
2024-04-11T02:38:58.487Z,2.30
2024-04-11T02:41:25.143Z,1.95
2024-04-11T02:43:51.932Z,2.10
2024-04-11T02:46:18.526Z,1.85
2024-04-11T02:48:45.832Z,1.85
2024-04-11T02:51:12.944Z,2.05
2024-04-11T02:53:40.321Z,1.45
2024-04-11T02:56:10.968Z,1.88
2024-04-11T02:58:38.614Z,1.88
2024-04-11T03:01:08.191Z,2.13
2024-04-11T03:03:35.951Z,2.10
2024-04-11T03:06:07.683Z,1.52
2024-04-11T03:08:35.064Z,2.20
2024-04-11T03:11:04.737Z,1.85
2024-04-11T03:13:31.299Z,1.80
2024-04-11T03:15:58.813Z,1.95
2024-04-11T03:18:25.696Z,1.60
2024-04-11T03:20:53.153Z,2.25
2024-04-11T03:23:19.741Z,1.77
2024-04-11T03:25:46.420Z,3.45
2024-04-11T03:28:13.022Z,1.52
2024-04-11T03:30:39.610Z,1.95
2024-04-11T03:33:07.313Z,1.92
2024-04-11T03:35:34.248Z,1.80
2024-04-11T03:38:00.889Z,1.48
2024-04-11T03:40:27.455Z,2.08
2024-04-11T03:42:55.370Z,1.80
2024-04-11T03:45:25.125Z,1.92
2024-04-11T03:47:51.912Z,2.20
2024-04-11T03:50:18.597Z,1.85
2024-04-11T03:52:45.264Z,1.90
2024-04-11T03:55:11.897Z,1.73
2024-04-11T03:57:39.753Z,1.85
2024-04-11T04:00:08.834Z,2.45
2024-04-11T04:02:35.674Z,1.98
2024-04-11T04:05:02.431Z,2.35
2024-04-11T04:07:30.322Z,1.63
2024-04-11T04:09:57.437Z,1.73
2024-04-11T04:12:24.437Z,1.70
2024-04-11T04:14:53.373Z,2.10
2024-04-11T04:17:20.777Z,1.83
2024-04-11T04:19:47.875Z,2.53
2024-04-11T04:22:17.510Z,1.45
2024-04-11T04:24:44.067Z,1.92
2024-04-11T04:27:10.728Z,2.60
2024-04-11T04:29:39.159Z,1.90
2024-04-11T04:32:05.860Z,2.20
2024-04-11T04:34:35.600Z,1.83
2024-04-11T04:37:02.283Z,1.83
2024-04-11T04:39:32.486Z,1.70
2024-04-11T04:41:59.519Z,1.77
2024-04-11T04:44:27.380Z,1.80
2024-04-11T04:46:54.649Z,1.52
2024-04-11T04:49:21.293Z,1.73
2024-04-11T04:51:48.730Z,1.77
2024-04-11T04:54:17.704Z,1.75
2024-04-11T04:56:46.971Z,1.98
2024-04-11T04:59:14.395Z,2.10
2024-04-11T05:01:42.899Z,1.52
2024-04-11T05:04:16.711Z,1.83
2024-04-11T05:06:44.278Z,2.20
2024-04-11T05:09:11.794Z,2.00
2024-04-11T05:11:38.698Z,1.83
2024-04-11T05:14:09.425Z,2.05
2024-04-11T05:16:36.394Z,1.65
2024-04-11T05:19:05.751Z,1.55
2024-04-11T05:21:34.698Z,2.25
2024-04-11T05:24:04.611Z,2.03
2024-04-11T05:26:32.853Z,2.35
2024-04-11T05:28:59.856Z,1.75
2024-04-11T05:31:29.634Z,2.00
2024-04-11T05:33:57.475Z,2.00
2024-04-11T05:36:30.247Z,2.08
2024-04-11T05:38:58.194Z,2.13
2024-04-11T05:41:26.203Z,2.13
2024-04-11T05:43:53.124Z,1.80
2024-04-11T05:46:20.023Z,1.75
2024-04-11T05:48:47.378Z,1.90
2024-04-11T05:51:14.085Z,2.00
2024-04-11T05:53:41.946Z,1.63
2024-04-11T05:56:12.155Z,2.22
2024-04-11T05:58:44.035Z,1.70
2024-04-11T06:01:11.312Z,1.42
2024-04-11T06:03:48.214Z,2.70
2024-04-11T06:06:15.691Z,1.92
2024-04-11T06:08:42.814Z,2.03
2024-04-11T06:11:09.739Z,1.88
2024-04-11T06:13:37.333Z,1.77
2024-04-11T06:16:04.143Z,2.50
2024-04-11T06:18:36.660Z,1.95
2024-04-11T06:21:06.411Z,2.10
2024-04-11T06:23:33.662Z,2.08
2024-04-11T06:26:00.474Z,1.67
2024-04-11T06:28:27.119Z,1.85
2024-04-11T06:30:57.186Z,1.50
2024-04-11T06:33:24.110Z,2.10
2024-04-11T06:35:53.962Z,2.10
2024-04-11T06:38:24.750Z,2.10
2024-04-11T06:40:53.635Z,2.15
2024-04-11T06:43:22.597Z,1.85
2024-04-11T06:45:52.586Z,1.50
2024-04-11T06:48:20.805Z,1.90
2024-04-11T06:50:48.221Z,1.80
2024-04-11T06:53:14.969Z,1.95
2024-04-11T06:55:47.342Z,2.22
2024-04-11T06:58:24.171Z,2.95
2024-04-11T07:01:00.996Z,1.80
2024-04-11T07:03:28.494Z,2.08
2024-04-11T07:05:58.792Z,2.05
2024-04-11T07:08:34.952Z,1.92
2024-04-11T07:11:21.207Z,2.97
2024-04-11T07:13:49.285Z,1.92
2024-04-11T07:16:18.208Z,2.30
2024-04-11T07:18:50.705Z,2.15
2024-04-11T07:21:19.080Z,1.75
2024-04-11T07:23:49.294Z,1.58
2024-04-11T07:26:21.486Z,2.03
2024-04-11T07:28:48.317Z,2.50
2024-04-11T07:31:17.610Z,1.95
2024-04-11T07:33:45.115Z,2.00
2024-04-11T07:36:15.164Z,2.00
2024-04-11T07:38:41.871Z,2.55
2024-04-11T07:41:21.701Z,1.88
2024-04-11T07:43:48.841Z,2.17
2024-04-11T07:46:15.629Z,2.22
2024-04-11T07:48:48.976Z,1.98
2024-04-11T07:53:42.753Z,2.33
2024-04-11T07:56:10.631Z,1.90
2024-04-11T07:58:40.134Z,2.38
2024-04-11T08:01:09.403Z,2.00
2024-04-11T08:03:36.086Z,2.05
2024-04-11T08:06:03.320Z,2.42
2024-04-11T08:08:30.212Z,2.33
2024-04-11T08:11:04.574Z,2.80
2024-04-11T08:13:34.934Z,2.80
2024-04-11T08:16:06.022Z,2.42
2024-04-11T08:18:32.961Z,2.20
2024-04-11T08:21:00.501Z,2.60
2024-04-11T08:23:27.164Z,2.88
2024-04-11T08:25:54.090Z,2.30
2024-04-11T08:28:21.563Z,3.03
2024-04-11T08:30:49.165Z,3.67
2024-04-11T08:33:16.575Z,2.67
2024-04-11T08:35:46.026Z,2.42
2024-04-11T08:38:14.026Z,2.90
2024-04-11T08:40:45.906Z,2.53
2024-04-11T08:43:13.752Z,3.47
2024-04-11T08:45:42.381Z,2.65
2024-04-11T08:48:09.444Z,2.70
2024-04-11T08:50:36.471Z,3.00
2024-04-11T08:53:07.374Z,2.42
2024-04-11T08:55:33.920Z,2.80
2024-04-11T08:58:01.620Z,2.88
2024-04-11T09:00:30.041Z,3.65
2024-04-11T09:02:56.990Z,3.10
2024-04-11T09:05:24.448Z,2.47
2024-04-11T09:07:52.602Z,2.50
2024-04-11T09:10:20.595Z,2.78
2024-04-11T09:12:48.905Z,3.03
2024-04-11T09:15:19.734Z,3.05
2024-04-11T09:17:46.762Z,2.45
2024-04-11T09:20:14.943Z,3.22
2024-04-11T09:22:48.613Z,2.97
2024-04-11T09:25:15.252Z,2.85
2024-04-11T09:27:52.149Z,2.67
2024-04-11T09:30:22.212Z,3.50
2024-04-11T09:32:50.487Z,2.50
2024-04-11T09:35:18.486Z,2.85
2024-04-11T09:37:45.883Z,3.97
2024-04-11T09:40:13.285Z,2.78
2024-04-11T09:42:40.761Z,3.42
2024-04-11T09:45:12.282Z,3.03
2024-04-11T09:47:40.412Z,3.47
2024-04-11T09:50:11.055Z,3.38
2024-04-11T09:52:46.600Z,2.88
2024-04-11T09:55:16.736Z,2.95
2024-04-11T09:57:48.454Z,3.30
2024-04-11T10:00:44.919Z,3.30
2024-04-11T10:03:12.080Z,2.85
2024-04-11T10:05:39.845Z,3.30
2024-04-11T10:08:18.360Z,3.65
2024-04-11T10:10:51.383Z,3.08
2024-04-11T10:13:23.231Z,2.75
2024-04-11T10:15:52.500Z,4.15
2024-04-11T10:18:19.494Z,4.15
2024-04-11T10:21:03.426Z,3.80
2024-04-11T10:25:57.655Z,3.90
2024-04-11T10:28:39.920Z,4.85
2024-04-11T10:31:20.416Z,3.60
2024-04-11T10:33:55.204Z,3.60
2024-04-11T10:36:22.963Z,3.83
2024-04-11T10:38:59.473Z,3.47
2024-04-11T10:41:26.655Z,3.40
2024-04-11T10:43:53.835Z,3.78
2024-04-11T10:46:23.360Z,3.33
2024-04-11T10:48:57.674Z,3.50
2024-04-11T10:51:24.324Z,3.95
2024-04-11T10:54:10.520Z,3.40
2024-04-11T10:56:41.576Z,3.40
2024-04-11T10:59:13.831Z,3.95
2024-04-11T11:01:49.502Z,3.33
2024-04-11T11:04:22.297Z,3.30
2024-04-11T11:06:52.870Z,3.60
2024-04-11T11:09:19.596Z,5.30
2024-04-11T11:11:46.894Z,3.88
2024-04-11T11:14:21.603Z,3.25
2024-04-11T11:16:48.776Z,3.55
2024-04-11T11:19:17.712Z,3.67
2024-04-11T11:21:51.909Z,3.88
2024-04-11T11:24:25.645Z,3.92
2024-04-11T11:26:59.933Z,3.65
2024-04-11T11:29:27.553Z,4.68
2024-04-11T11:32:02.722Z,4.43
2024-04-11T11:34:31.489Z,4.40
2024-04-11T11:37:01.639Z,4.32
2024-04-11T11:39:34.785Z,4.00
2024-04-11T11:42:10.273Z,3.83
2024-04-11T11:44:56.557Z,4.63
2024-04-11T11:47:34.915Z,4.60
2024-04-11T11:50:09.390Z,4.40
2024-04-11T11:52:41.043Z,4.50
2024-04-11T11:55:11.777Z,4.72
2024-04-11T11:57:41.431Z,4.20
2024-04-11T12:00:23.006Z,4.70
2024-04-11T12:03:01.771Z,4.57
2024-04-11T12:05:29.001Z,5.07
2024-04-11T12:07:59.851Z,4.55
2024-04-11T12:10:32.835Z,5.35
2024-04-11T12:13:18.135Z,4.82
2024-04-11T12:15:45.424Z,4.88
2024-04-11T12:18:13.521Z,4.38
2024-04-11T12:20:41.208Z,5.28
2024-04-11T12:23:08.243Z,5.20
2024-04-11T12:25:34.815Z,5.25
2024-04-11T12:28:05.726Z,5.38
2024-04-11T12:30:33.319Z,4.82
2024-04-11T12:33:02.153Z,5.82
2024-04-11T12:35:31.290Z,5.22
2024-04-11T12:37:58.975Z,4.68
2024-04-11T12:40:35.118Z,4.85
2024-04-11T12:43:03.070Z,5.15
2024-04-11T12:45:40.515Z,5.13
2024-04-11T12:48:09.162Z,4.68
2024-04-11T12:50:36.888Z,5.45
2024-04-11T12:53:12.039Z,4.95
2024-04-11T12:55:39.233Z,4.97
2024-04-11T12:58:08.800Z,4.90
2024-04-11T13:00:45.274Z,5.55
2024-04-11T13:03:20.141Z,5.18
2024-04-11T13:05:53.305Z,5.40
2024-04-11T13:08:29.491Z,4.82
2024-04-11T13:11:08.301Z,5.43
2024-04-11T13:13:35.917Z,5.50
2024-04-11T13:16:11.220Z,5.53
2024-04-11T13:18:39.968Z,5.85
2024-04-11T13:21:16.369Z,5.40
2024-04-11T13:23:46.518Z,5.47
2024-04-11T13:26:18.438Z,5.43
2024-04-11T13:28:51.257Z,5.93
2024-04-11T13:31:21.517Z,6.07
2024-04-11T13:33:49.748Z,5.60
2024-04-11T13:36:16.433Z,6.13
2024-04-11T13:38:50.567Z,6.07
2024-04-11T13:41:32.578Z,6.30
2024-04-11T13:43:59.243Z,6.90
2024-04-11T13:46:35.991Z,6.35
2024-04-11T13:49:21.633Z,6.68
2024-04-11T13:51:54.524Z,6.90
2024-04-11T13:54:22.461Z,6.32
2024-04-11T13:57:01.119Z,6.50
2024-04-11T13:59:29.781Z,7.18
2024-04-11T14:02:01.299Z,6.88
2024-04-11T14:04:48.339Z,7.53
2024-04-11T14:07:25.140Z,7.20
2024-04-11T14:09:52.998Z,6.68
2024-04-11T14:12:24.466Z,8.00
2024-04-11T14:14:53.268Z,7.18
2024-04-11T14:17:28.495Z,7.97
2024-04-11T14:20:14.770Z,7.93
2024-04-11T14:22:51.521Z,7.30
2024-04-11T14:25:31.702Z,6.85
2024-04-11T14:28:01.834Z,8.13
2024-04-11T14:30:35.439Z,7.15
2024-04-11T14:33:11.699Z,7.25
2024-04-11T14:35:57.381Z,7.30
2024-04-11T14:38:36.363Z,7.75
2024-04-11T14:41:06.797Z,7.43
2024-04-11T14:43:34.616Z,8.57
2024-04-11T14:46:01.278Z,7.40
2024-04-11T14:48:35.770Z,7.70
2024-04-11T14:51:10.237Z,8.57
2024-04-11T14:53:40.236Z,8.45
2024-04-11T14:56:20.027Z,8.63
2024-04-11T14:58:49.947Z,8.05
2024-04-11T15:01:18.127Z,8.15
2024-04-11T15:03:49.018Z,8.90
2024-04-11T15:06:16.815Z,8.50
2024-04-11T15:08:46.273Z,8.77
2024-04-11T15:11:14.325Z,8.60
2024-04-11T15:13:41.268Z,8.98
2024-04-11T15:16:27.306Z,8.75
2024-04-11T15:18:56.544Z,8.75
2024-04-11T15:21:38.596Z,8.70
2024-04-11T15:24:07.587Z,8.98
2024-04-11T15:26:37.586Z,7.93
2024-04-11T15:29:13.565Z,8.32
2024-04-11T15:31:42.884Z,8.43
2024-04-11T15:34:09.725Z,8.75
2024-04-11T15:36:54.097Z,9.90
2024-04-11T15:39:30.409Z,8.85
2024-04-11T15:42:02.221Z,8.63
2024-04-11T15:44:38.870Z,9.63
2024-04-11T15:47:06.152Z,9.50
2024-04-11T15:49:34.562Z,10.25
2024-04-11T15:52:08.402Z,9.57
2024-04-11T15:54:58.280Z,10.05
2024-04-11T15:57:32.755Z,10.02
2024-04-11T16:00:11.826Z,10.55
2024-04-11T16:02:43.714Z,10.77
2024-04-11T16:05:25.847Z,11.20
2024-04-11T16:08:01.219Z,11.82
2024-04-11T16:10:28.546Z,10.73
2024-04-11T16:13:00.149Z,10.65
2024-04-11T16:15:32.446Z,11.00
2024-04-11T16:18:00.204Z,11.35
2024-04-11T16:20:32.862Z,10.88
2024-04-11T16:22:59.930Z,11.73
2024-04-11T16:25:28.625Z,11.20
2024-04-11T16:27:59.316Z,12.32
2024-04-11T16:30:44.941Z,13.10
2024-04-11T16:33:11.716Z,11.32
2024-04-11T16:35:40.514Z,10.43
2024-04-11T16:38:10.209Z,10.45
2024-04-11T16:40:39.169Z,10.80
2024-04-11T16:43:11.565Z,10.90
2024-04-11T16:45:43.096Z,11.68
2024-04-11T16:48:15.274Z,10.77
2024-04-11T16:50:48.165Z,10.52
2024-04-11T16:53:34.423Z,10.68
2024-04-11T16:56:06.361Z,10.82
2024-04-11T16:58:54.792Z,11.27
2024-04-11T17:01:21.521Z,10.15
2024-04-11T17:03:57.868Z,11.88
2024-04-11T17:06:28.209Z,11.52
2024-04-11T17:09:04.124Z,10.70
2024-04-11T17:11:37.134Z,10.32
2024-04-11T17:14:04.043Z,10.50
2024-04-11T17:16:49.641Z,10.95
2024-04-11T17:19:31.579Z,10.45
2024-04-11T17:21:58.219Z,9.93
2024-04-11T17:24:25.101Z,9.10
2024-04-11T17:26:56.931Z,10.43
2024-04-11T17:29:44.006Z,10.05
2024-04-11T17:32:23.237Z,11.07
2024-04-11T17:34:56.751Z,9.75
2024-04-11T17:37:40.759Z,9.82
2024-04-11T17:40:30.689Z,8.93
2024-04-11T17:42:59.402Z,8.50
2024-04-11T17:45:26.630Z,8.20
2024-04-11T17:47:53.389Z,8.40
2024-04-11T17:50:36.927Z,9.32
2024-04-11T17:53:09.633Z,8.30
2024-04-11T17:55:39.031Z,7.53
2024-04-11T17:58:11.827Z,8.73
2024-04-11T18:00:42.325Z,7.95
2024-04-11T18:03:10.991Z,7.90
2024-04-11T18:05:41.466Z,9.07
2024-04-11T18:08:21.327Z,8.95
2024-04-11T18:10:51.734Z,8.55
2024-04-11T18:13:19.141Z,8.55
2024-04-11T18:15:51.145Z,9.02
2024-04-11T18:18:18.940Z,8.65
2024-04-11T18:20:46.858Z,8.05
2024-04-11T18:23:19.485Z,6.80
2024-04-11T18:25:48.344Z,9.00
2024-04-11T18:28:14.943Z,7.78
2024-04-11T18:30:51.365Z,7.90
2024-04-11T18:33:19.743Z,8.38
2024-04-11T18:35:48.673Z,7.50
2024-04-11T18:38:17.459Z,8.27
2024-04-11T18:40:56.018Z,7.85
2024-04-11T18:43:30.825Z,7.82
2024-04-11T18:46:17.563Z,8.30
2024-04-11T18:48:49.422Z,8.13
2024-04-11T18:51:26.529Z,9.02
2024-04-11T18:53:54.107Z,10.40
2024-04-11T18:56:35.922Z,9.35
2024-04-11T18:59:07.961Z,8.35
2024-04-11T19:01:42.551Z,9.25
2024-04-11T19:04:10.215Z,8.80
2024-04-11T19:06:39.819Z,8.75
2024-04-11T19:09:12.856Z,9.45
2024-04-11T19:11:42.437Z,8.23
2024-04-11T19:14:09.122Z,8.77
2024-04-11T19:16:37.653Z,8.40
2024-04-11T19:19:08.616Z,9.18
2024-04-11T19:21:41.512Z,8.95
2024-04-11T19:24:08.448Z,9.23
2024-04-11T19:26:41.910Z,9.05
2024-04-11T19:29:09.532Z,9.80
2024-04-11T19:31:47.594Z,9.20
2024-04-11T19:34:16.815Z,9.65
2024-04-11T19:36:44.781Z,11.18
2024-04-11T19:39:12.193Z,9.88
2024-04-11T19:41:43.258Z,9.85
2024-04-11T19:44:15.569Z,9.70
2024-04-11T19:46:42.821Z,9.63
2024-04-11T19:49:25.781Z,9.07
2024-04-11T19:51:58.950Z,9.73
2024-04-11T19:54:25.890Z,10.05
2024-04-11T19:56:52.819Z,9.73
2024-04-11T19:59:22.425Z,9.95
2024-04-11T20:01:55.334Z,10.30
2024-04-11T20:04:24.742Z,10.70
2024-04-11T20:07:00.759Z,10.38
2024-04-11T20:09:30.334Z,10.52
2024-04-11T20:12:19.166Z,10.25
2024-04-11T20:14:50.637Z,10.32
2024-04-11T20:17:18.992Z,9.00
2024-04-11T20:19:46.705Z,10.00
2024-04-11T20:22:20.122Z,9.45
2024-04-11T20:24:54.423Z,9.73
2024-04-11T20:27:25.124Z,9.70
2024-04-11T20:29:58.431Z,9.80
2024-04-11T20:34:59.904Z,9.93
2024-04-11T20:37:27.335Z,9.95
2024-04-11T20:40:01.349Z,10.60
2024-04-11T20:43:04.760Z,9.85
2024-04-11T20:45:34.095Z,9.63
2024-04-11T20:48:13.103Z,9.38
2024-04-11T20:50:58.473Z,9.27
2024-04-11T20:53:48.503Z,10.43
2024-04-11T20:56:33.994Z,9.55
2024-04-11T20:59:19.282Z,10.00
2024-04-11T21:02:04.933Z,9.18
2024-04-11T21:04:50.159Z,10.57
2024-04-11T21:07:35.504Z,9.52
2024-04-11T21:10:20.975Z,10.43
2024-04-11T21:13:06.297Z,10.18
2024-04-11T21:15:51.730Z,9.80
2024-04-11T21:18:37.184Z,10.68
2024-04-11T21:21:22.645Z,10.25
2024-04-11T21:24:08.845Z,10.05
2024-04-11T21:26:54.243Z,10.20
2024-04-11T21:30:04.584Z,10.25
2024-04-11T21:32:50.187Z,10.93
2024-04-11T21:35:16.968Z,10.27
2024-04-11T21:37:46.728Z,10.70
2024-04-11T21:40:19.043Z,9.88
2024-04-11T21:42:45.906Z,10.45
2024-04-11T21:45:17.583Z,11.50
2024-04-11T21:47:47.336Z,10.73
2024-04-11T21:50:16.393Z,10.10
2024-04-11T21:52:52.377Z,10.43
2024-04-11T21:55:22.410Z,10.90
2024-04-11T21:57:49.483Z,10.15
2024-04-11T22:00:41.862Z,10.30
2024-04-11T22:03:09.153Z,10.68
2024-04-11T22:05:43.144Z,10.30
2024-04-11T22:08:12.581Z,10.35
2024-04-11T22:10:45.001Z,9.50
2024-04-11T22:13:19.099Z,10.03
2024-04-11T22:15:50.891Z,8.57
2024-04-11T22:18:31.845Z,8.50
2024-04-11T22:21:13.214Z,7.82
2024-04-11T22:23:46.539Z,7.60
2024-04-11T22:26:19.619Z,7.45
2024-04-11T22:28:49.745Z,7.67
2024-04-11T22:31:16.549Z,6.53
2024-04-11T22:33:44.162Z,6.57
2024-04-11T22:36:43.486Z,6.15
2024-04-11T22:39:10.209Z,4.60
2024-04-11T22:41:38.971Z,3.65
2024-04-11T22:44:05.859Z,4.35
2024-04-11T22:46:35.205Z,4.70
2024-04-11T22:49:22.855Z,4.82
2024-04-11T22:51:56.284Z,5.22
2024-04-11T22:54:24.468Z,5.57
2024-04-11T22:56:51.961Z,5.10
2024-04-11T22:59:31.351Z,4.13
2024-04-11T23:02:16.621Z,3.63
2024-04-11T23:04:47.586Z,3.60
2024-04-11T23:07:35.903Z,3.70
2024-04-11T23:10:12.045Z,4.18
2024-04-11T23:12:42.065Z,4.85
2024-04-11T23:15:14.688Z,5.50
2024-04-11T23:17:49.017Z,4.97
2024-04-11T23:20:24.816Z,5.88
2024-04-11T23:22:57.979Z,5.25
2024-04-11T23:25:27.458Z,5.03
2024-04-11T23:27:54.950Z,5.60
2024-04-11T23:30:38.713Z,5.55
2024-04-11T23:33:06.552Z,5.60
2024-04-11T23:35:33.538Z,5.65
2024-04-11T23:38:07.497Z,5.85
2024-04-11T23:40:45.236Z,4.93
2024-04-11T23:43:12.666Z,4.88
2024-04-11T23:45:39.570Z,4.63
2024-04-11T23:48:07.209Z,4.28
2024-04-11T23:50:39.957Z,4.25
2024-04-11T23:53:16.615Z,4.03
2024-04-11T23:56:05.848Z,3.30
2024-04-11T23:58:33.937Z,3.20
